sensor_id;sensor_type;location;lat;lon;timestamp;temperature;humidity
63219;DHT22;49320;52.512;13.448;2023-06-14T00:00:33;18.40;49.20
63219;DHT22;49320;52.512;13.448;2023-06-14T00:03:02;18.40;49.20
63219;DHT22;49320;52.512;13.448;2023-06-14T00:05:30;18.50;49.30
63219;DHT22;49320;52.512;13.448;2023-06-14T00:07:59;18.40;49.60
63219;DHT22;49320;52.512;13.448;2023-06-14T00:10:27;18.30;49.50
63219;DHT22;49320;52.512;13.448;2023-06-14T00:12:57;18.30;50.00
63219;DHT22;49320;52.512;13.448;2023-06-14T00:15:26;18.30;49.80
63219;DHT22;49320;52.512;13.448;2023-06-14T00:17:53;18.20;49.90
63219;DHT22;49320;52.512;13.448;2023-06-14T00:20:21;18.20;50.30
63219;DHT22;49320;52.512;13.448;2023-06-14T00:22:48;18.10;50.20
63219;DHT22;49320;52.512;13.448;2023-06-14T00:25:14;18.10;50.40
63219;DHT22;49320;52.512;13.448;2023-06-14T00:27:55;18.00;50.60
63219;DHT22;49320;52.512;13.448;2023-06-14T00:30:23;18.00;50.70
63219;DHT22;49320;52.512;13.448;2023-06-14T00:32:51;18.00;50.80
63219;DHT22;49320;52.512;13.448;2023-06-14T00:35:18;17.90;50.90
63219;DHT22;49320;52.512;13.448;2023-06-14T00:37:45;17.90;50.90
63219;DHT22;49320;52.512;13.448;2023-06-14T00:40:12;17.90;51.00
63219;DHT22;49320;52.512;13.448;2023-06-14T00:42:39;17.90;51.00
63219;DHT22;49320;52.512;13.448;2023-06-14T00:45:07;17.90;51.40
63219;DHT22;49320;52.512;13.448;2023-06-14T00:47:36;17.80;51.40
63219;DHT22;49320;52.512;13.448;2023-06-14T00:50:07;17.80;51.50
63219;DHT22;49320;52.512;13.448;2023-06-14T00:52:35;17.80;51.70
63219;DHT22;49320;52.512;13.448;2023-06-14T00:55:03;17.80;51.90
63219;DHT22;49320;52.512;13.448;2023-06-14T00:57:31;17.80;51.90
63219;DHT22;49320;52.512;13.448;2023-06-14T00:59:58;17.80;51.90
63219;DHT22;49320;52.512;13.448;2023-06-14T01:02:25;17.70;51.80
63219;DHT22;49320;52.512;13.448;2023-06-14T01:04:52;17.70;52.20
63219;DHT22;49320;52.512;13.448;2023-06-14T01:07:46;17.70;52.00
63219;DHT22;49320;52.512;13.448;2023-06-14T01:11:02;17.70;53.10
63219;DHT22;49320;52.512;13.448;2023-06-14T01:13:35;17.70;51.90
63219;DHT22;49320;52.512;13.448;2023-06-14T01:16:05;17.70;52.40
63219;DHT22;49320;52.512;13.448;2023-06-14T01:18:34;17.70;52.70
63219;DHT22;49320;52.512;13.448;2023-06-14T01:21:02;17.60;52.60
63219;DHT22;49320;52.512;13.448;2023-06-14T01:23:32;17.60;52.60
63219;DHT22;49320;52.512;13.448;2023-06-14T01:26:00;17.60;52.90
63219;DHT22;49320;52.512;13.448;2023-06-14T01:28:29;17.60;52.90
63219;DHT22;49320;52.512;13.448;2023-06-14T01:31:01;17.60;53.10
63219;DHT22;49320;52.512;13.448;2023-06-14T01:33:33;17.50;53.10
63219;DHT22;49320;52.512;13.448;2023-06-14T01:36:02;17.60;53.10
63219;DHT22;49320;52.512;13.448;2023-06-14T01:38:32;17.60;53.10
63219;DHT22;49320;52.512;13.448;2023-06-14T01:41:00;16.10;52.50
63219;DHT22;49320;52.512;13.448;2023-06-14T01:43:31;17.50;53.40
63219;DHT22;49320;52.512;13.448;2023-06-14T01:46:00;17.50;53.60
63219;DHT22;49320;52.512;13.448;2023-06-14T01:48:27;17.50;53.50
63219;DHT22;49320;52.512;13.448;2023-06-14T01:50:54;17.50;53.30
63219;DHT22;49320;52.512;13.448;2023-06-14T01:53:21;17.50;53.70
63219;DHT22;49320;52.512;13.448;2023-06-14T01:55:48;17.50;53.70
63219;DHT22;49320;52.512;13.448;2023-06-14T01:58:15;17.50;54.00
63219;DHT22;49320;52.512;13.448;2023-06-14T02:00:45;17.50;53.90
63219;DHT22;49320;52.512;13.448;2023-06-14T02:03:14;17.50;53.80
63219;DHT22;49320;52.512;13.448;2023-06-14T02:05:41;17.40;54.10
63219;DHT22;49320;52.512;13.448;2023-06-14T02:08:08;17.40;54.10
63219;DHT22;49320;52.512;13.448;2023-06-14T02:10:35;17.40;54.30
63219;DHT22;49320;52.512;13.448;2023-06-14T02:13:02;17.40;54.10
63219;DHT22;49320;52.512;13.448;2023-06-14T02:15:29;17.40;54.30
63219;DHT22;49320;52.512;13.448;2023-06-14T02:18:01;17.40;54.40
63219;DHT22;49320;52.512;13.448;2023-06-14T02:20:30;17.40;54.60
63219;DHT22;49320;52.512;13.448;2023-06-14T02:22:57;17.30;54.60
63219;DHT22;49320;52.512;13.448;2023-06-14T02:25:24;17.40;54.70
63219;DHT22;49320;52.512;13.448;2023-06-14T02:27:51;17.40;54.90
63219;DHT22;49320;52.512;13.448;2023-06-14T02:30:18;17.40;55.00
63219;DHT22;49320;52.512;13.448;2023-06-14T02:32:45;17.30;55.00
63219;DHT22;49320;52.512;13.448;2023-06-14T02:35:12;17.30;54.90
63219;DHT22;49320;52.512;13.448;2023-06-14T02:37:39;17.30;55.40
63219;DHT22;49320;52.512;13.448;2023-06-14T02:40:07;17.30;55.00
63219;DHT22;49320;52.512;13.448;2023-06-14T02:42:35;17.30;55.10
63219;DHT22;49320;52.512;13.448;2023-06-14T02:45:02;17.10;54.80
63219;DHT22;49320;52.512;13.448;2023-06-14T02:47:30;17.20;55.40
63219;DHT22;49320;52.512;13.448;2023-06-14T02:49:57;17.30;55.30
63219;DHT22;49320;52.512;13.448;2023-06-14T02:52:24;17.20;55.40
63219;DHT22;49320;52.512;13.448;2023-06-14T02:54:51;17.20;55.60
63219;DHT22;49320;52.512;13.448;2023-06-14T02:57:18;17.20;55.50
63219;DHT22;49320;52.512;13.448;2023-06-14T02:59:45;17.20;55.40
63219;DHT22;49320;52.512;13.448;2023-06-14T03:02:12;17.20;55.80
63219;DHT22;49320;52.512;13.448;2023-06-14T03:04:39;17.10;55.70
63219;DHT22;49320;52.512;13.448;2023-06-14T03:07:06;17.20;55.80
63219;DHT22;49320;52.512;13.448;2023-06-14T03:09:36;17.20;55.80
63219;DHT22;49320;52.512;13.448;2023-06-14T03:12:05;17.20;55.80
63219;DHT22;49320;52.512;13.448;2023-06-14T03:14:36;17.20;55.90
63219;DHT22;49320;52.512;13.448;2023-06-14T03:17:03;17.20;55.70
63219;DHT22;49320;52.512;13.448;2023-06-14T03:19:31;17.20;55.90
63219;DHT22;49320;52.512;13.448;2023-06-14T03:21:58;17.20;55.80
63219;DHT22;49320;52.512;13.448;2023-06-14T03:24:25;17.20;55.50
63219;DHT22;49320;52.512;13.448;2023-06-14T03:26:55;17.20;56.00
63219;DHT22;49320;52.512;13.448;2023-06-14T03:29:23;17.20;56.00
63219;DHT22;49320;52.512;13.448;2023-06-14T03:31:58;17.30;56.20
63219;DHT22;49320;52.512;13.448;2023-06-14T03:34:26;17.30;56.60
63219;DHT22;49320;52.512;13.448;2023-06-14T03:36:53;17.30;56.10
63219;DHT22;49320;52.512;13.448;2023-06-14T03:39:20;17.30;56.10
63219;DHT22;49320;52.512;13.448;2023-06-14T03:41:47;17.30;56.10
63219;DHT22;49320;52.512;13.448;2023-06-14T03:44:16;17.40;55.50
63219;DHT22;49320;52.512;13.448;2023-06-14T03:46:45;17.30;56.10
63219;DHT22;49320;52.512;13.448;2023-06-14T03:49:13;17.40;56.20
63219;DHT22;49320;52.512;13.448;2023-06-14T03:51:40;17.40;56.10
63219;DHT22;49320;52.512;13.448;2023-06-14T03:54:07;17.40;56.60
63219;DHT22;49320;52.512;13.448;2023-06-14T03:56:37;17.40;56.10
63219;DHT22;49320;52.512;13.448;2023-06-14T03:59:04;17.40;55.70
63219;DHT22;49320;52.512;13.448;2023-06-14T04:04:00;17.50;55.70
63219;DHT22;49320;52.512;13.448;2023-06-14T04:06:27;17.50;56.20
63219;DHT22;49320;52.512;13.448;2023-06-14T04:08:59;17.50;56.10
63219;DHT22;49320;52.512;13.448;2023-06-14T04:11:29;17.70;56.20
63219;DHT22;49320;52.512;13.448;2023-06-14T04:13:58;17.70;56.10
63219;DHT22;49320;52.512;13.448;2023-06-14T04:16:26;17.80;56.10
63219;DHT22;49320;52.512;13.448;2023-06-14T04:18:55;17.90;56.20
63219;DHT22;49320;52.512;13.448;2023-06-14T04:21:22;17.90;56.10
63219;DHT22;49320;52.512;13.448;2023-06-14T04:23:50;17.90;56.10
63219;DHT22;49320;52.512;13.448;2023-06-14T04:26:19;17.90;56.10
63219;DHT22;49320;52.512;13.448;2023-06-14T04:28:49;18.00;56.00
63219;DHT22;49320;52.512;13.448;2023-06-14T04:31:17;18.00;56.00
63219;DHT22;49320;52.512;13.448;2023-06-14T04:33:44;18.10;55.90
63219;DHT22;49320;52.512;13.448;2023-06-14T04:36:13;18.10;55.80
63219;DHT22;49320;52.512;13.448;2023-06-14T04:38:44;18.20;55.80
63219;DHT22;49320;52.512;13.448;2023-06-14T04:41:16;18.20;55.80
63219;DHT22;49320;52.512;13.448;2023-06-14T04:43:44;18.20;55.80
63219;DHT22;49320;52.512;13.448;2023-06-14T04:46:15;18.30;55.90
63219;DHT22;49320;52.512;13.448;2023-06-14T04:48:43;18.30;55.70
63219;DHT22;49320;52.512;13.448;2023-06-14T04:51:11;18.30;55.60
63219;DHT22;49320;52.512;13.448;2023-06-14T04:53:39;18.40;55.70
63219;DHT22;49320;52.512;13.448;2023-06-14T04:56:06;18.50;55.60
63219;DHT22;49320;52.512;13.448;2023-06-14T04:58:33;18.50;55.70
63219;DHT22;49320;52.512;13.448;2023-06-14T05:01:00;18.50;55.40
63219;DHT22;49320;52.512;13.448;2023-06-14T05:03:28;18.60;55.50
63219;DHT22;49320;52.512;13.448;2023-06-14T05:05:57;18.60;55.60
63219;DHT22;49320;52.512;13.448;2023-06-14T05:08:24;18.70;55.50
63219;DHT22;49320;52.512;13.448;2023-06-14T05:10:51;18.80;55.40
63219;DHT22;49320;52.512;13.448;2023-06-14T05:13:18;18.90;55.20
63219;DHT22;49320;52.512;13.448;2023-06-14T05:15:45;19.00;55.20
63219;DHT22;49320;52.512;13.448;2023-06-14T05:18:12;19.10;55.10
63219;DHT22;49320;52.512;13.448;2023-06-14T05:20:40;19.10;55.00
63219;DHT22;49320;52.512;13.448;2023-06-14T05:23:09;19.20;55.00
63219;DHT22;49320;52.512;13.448;2023-06-14T05:25:45;19.30;55.00
63219;DHT22;49320;52.512;13.448;2023-06-14T05:28:12;19.30;54.90
63219;DHT22;49320;52.512;13.448;2023-06-14T05:30:39;19.40;54.80
63219;DHT22;49320;52.512;13.448;2023-06-14T05:33:06;19.50;54.80
63219;DHT22;49320;52.512;13.448;2023-06-14T05:35:33;19.60;54.70
63219;DHT22;49320;52.512;13.448;2023-06-14T05:38:00;19.60;54.50
63219;DHT22;49320;52.512;13.448;2023-06-14T05:40:27;19.70;55.00
63219;DHT22;49320;52.512;13.448;2023-06-14T05:42:54;19.70;54.30
63219;DHT22;49320;52.512;13.448;2023-06-14T05:45:21;19.70;54.30
63219;DHT22;49320;52.512;13.448;2023-06-14T05:47:48;19.80;54.30
63219;DHT22;49320;52.512;13.448;2023-06-14T05:50:15;19.80;54.20
63219;DHT22;49320;52.512;13.448;2023-06-14T05:52:42;19.90;53.80
63219;DHT22;49320;52.512;13.448;2023-06-14T05:55:09;19.80;54.20
63219;DHT22;49320;52.512;13.448;2023-06-14T05:57:39;19.90;54.20
63219;DHT22;49320;52.512;13.448;2023-06-14T06:00:07;19.90;54.00
63219;DHT22;49320;52.512;13.448;2023-06-14T06:02:41;19.90;54.00
63219;DHT22;49320;52.512;13.448;2023-06-14T06:05:12;19.90;53.60
63219;DHT22;49320;52.512;13.448;2023-06-14T06:07:40;19.90;54.00
63219;DHT22;49320;52.512;13.448;2023-06-14T06:10:07;19.80;54.00
63219;DHT22;49320;52.512;13.448;2023-06-14T06:12:34;19.80;54.00
63219;DHT22;49320;52.512;13.448;2023-06-14T06:17:29;19.80;53.50
63219;DHT22;49320;52.512;13.448;2023-06-14T06:20:16;19.80;54.10
63219;DHT22;49320;52.512;13.448;2023-06-14T06:22:43;19.70;54.10
63219;DHT22;49320;52.512;13.448;2023-06-14T06:25:10;19.70;54.20
63219;DHT22;49320;52.512;13.448;2023-06-14T06:27:37;19.70;54.30
63219;DHT22;49320;52.512;13.448;2023-06-14T06:30:04;19.60;54.30
63219;DHT22;49320;52.512;13.448;2023-06-14T06:32:32;19.70;54.30
63219;DHT22;49320;52.512;13.448;2023-06-14T06:34:59;19.70;54.40
63219;DHT22;49320;52.512;13.448;2023-06-14T06:37:26;19.70;54.40
63219;DHT22;49320;52.512;13.448;2023-06-14T06:39:53;19.60;54.50
63219;DHT22;49320;52.512;13.448;2023-06-14T06:42:20;19.60;54.50
63219;DHT22;49320;52.512;13.448;2023-06-14T06:44:47;19.60;54.40
63219;DHT22;49320;52.512;13.448;2023-06-14T06:47:14;19.60;54.40
63219;DHT22;49320;52.512;13.448;2023-06-14T06:49:41;19.60;54.60
63219;DHT22;49320;52.512;13.448;2023-06-14T06:52:08;19.60;54.50
63219;DHT22;49320;52.512;13.448;2023-06-14T06:54:35;19.70;54.30
63219;DHT22;49320;52.512;13.448;2023-06-14T06:57:02;19.70;54.80
63219;DHT22;49320;52.512;13.448;2023-06-14T06:59:29;19.70;54.80
63219;DHT22;49320;52.512;13.448;2023-06-14T07:01:56;19.80;55.30
63219;DHT22;49320;52.512;13.448;2023-06-14T07:04:23;19.80;54.60
63219;DHT22;49320;52.512;13.448;2023-06-14T07:06:50;19.90;54.80
63219;DHT22;49320;52.512;13.448;2023-06-14T07:09:17;20.00;54.70
63219;DHT22;49320;52.512;13.448;2023-06-14T07:11:47;20.10;54.30
63219;DHT22;49320;52.512;13.448;2023-06-14T07:14:14;20.10;54.70
63219;DHT22;49320;52.512;13.448;2023-06-14T07:16:41;20.20;54.50
63219;DHT22;49320;52.512;13.448;2023-06-14T07:19:10;20.30;53.90
63219;DHT22;49320;52.512;13.448;2023-06-14T07:21:37;20.30;54.30
63219;DHT22;49320;52.512;13.448;2023-06-14T07:24:06;22.10;55.10
63219;DHT22;49320;52.512;13.448;2023-06-14T07:26:34;20.40;54.10
63219;DHT22;49320;52.512;13.448;2023-06-14T07:29:04;20.50;54.20
63219;DHT22;49320;52.512;13.448;2023-06-14T07:31:31;20.50;54.00
63219;DHT22;49320;52.512;13.448;2023-06-14T07:33:58;20.60;54.20
63219;DHT22;49320;52.512;13.448;2023-06-14T07:36:25;20.60;54.00
63219;DHT22;49320;52.512;13.448;2023-06-14T07:38:52;20.70;54.00
63219;DHT22;49320;52.512;13.448;2023-06-14T07:41:19;20.80;54.00
63219;DHT22;49320;52.512;13.448;2023-06-14T07:43:46;20.90;53.90
63219;DHT22;49320;52.512;13.448;2023-06-14T07:46:13;21.00;53.80
63219;DHT22;49320;52.512;13.448;2023-06-14T07:48:40;21.20;53.80
63219;DHT22;49320;52.512;13.448;2023-06-14T07:51:07;21.30;53.60
63219;DHT22;49320;52.512;13.448;2023-06-14T07:53:34;21.40;53.50
63219;DHT22;49320;52.512;13.448;2023-06-14T07:56:00;21.50;53.40
63219;DHT22;49320;52.512;13.448;2023-06-14T07:58:29;21.70;53.20
63219;DHT22;49320;52.512;13.448;2023-06-14T08:00:55;21.80;53.00
63219;DHT22;49320;52.512;13.448;2023-06-14T08:03:22;23.00;53.40
63219;DHT22;49320;52.512;13.448;2023-06-14T08:05:50;22.10;52.70
63219;DHT22;49320;52.512;13.448;2023-06-14T08:08:17;22.20;52.40
63219;DHT22;49320;52.512;13.448;2023-06-14T08:10:44;22.30;52.20
63219;DHT22;49320;52.512;13.448;2023-06-14T08:13:11;22.30;52.10
63219;DHT22;49320;52.512;13.448;2023-06-14T08:15:38;22.30;52.00
63219;DHT22;49320;52.512;13.448;2023-06-14T08:18:05;22.30;51.90
63219;DHT22;49320;52.512;13.448;2023-06-14T08:20:32;22.40;51.90
63219;DHT22;49320;52.512;13.448;2023-06-14T08:22:59;22.50;51.80
63219;DHT22;49320;52.512;13.448;2023-06-14T08:25:26;22.50;51.80
63219;DHT22;49320;52.512;13.448;2023-06-14T08:27:53;22.60;51.70
63219;DHT22;49320;52.512;13.448;2023-06-14T08:30:19;22.70;51.70
63219;DHT22;49320;52.512;13.448;2023-06-14T08:32:46;22.70;51.40
63219;DHT22;49320;52.512;13.448;2023-06-14T08:35:22;22.80;51.20
63219;DHT22;49320;52.512;13.448;2023-06-14T08:37:50;22.80;51.20
63219;DHT22;49320;52.512;13.448;2023-06-14T08:40:22;22.90;51.10
63219;DHT22;49320;52.512;13.448;2023-06-14T08:42:54;23.00;51.00
63219;DHT22;49320;52.512;13.448;2023-06-14T08:45:23;23.00;50.90
63219;DHT22;49320;52.512;13.448;2023-06-14T08:47:53;23.00;50.70
63219;DHT22;49320;52.512;13.448;2023-06-14T08:50:26;23.10;50.60
63219;DHT22;49320;52.512;13.448;2023-06-14T08:52:59;23.10;50.50
63219;DHT22;49320;52.512;13.448;2023-06-14T08:55:31;23.10;50.40
63219;DHT22;49320;52.512;13.448;2023-06-14T08:58:03;23.20;50.30
63219;DHT22;49320;52.512;13.448;2023-06-14T09:00:32;23.30;50.20
63219;DHT22;49320;52.512;13.448;2023-06-14T09:03:00;23.30;50.00
63219;DHT22;49320;52.512;13.448;2023-06-14T09:05:28;23.40;50.10
63219;DHT22;49320;52.512;13.448;2023-06-14T09:07:55;23.50;50.00
63219;DHT22;49320;52.512;13.448;2023-06-14T09:10:32;23.60;50.00
63219;DHT22;49320;52.512;13.448;2023-06-14T09:13:01;23.70;49.70
63219;DHT22;49320;52.512;13.448;2023-06-14T09:15:29;23.90;49.60
63219;DHT22;49320;52.512;13.448;2023-06-14T09:17:56;24.00;49.40
63219;DHT22;49320;52.512;13.448;2023-06-14T09:20:24;24.20;49.20
63219;DHT22;49320;52.512;13.448;2023-06-14T09:22:53;24.30;49.00
63219;DHT22;49320;52.512;13.448;2023-06-14T09:25:20;24.40;48.70
63219;DHT22;49320;52.512;13.448;2023-06-14T09:28:06;24.50;48.10
63219;DHT22;49320;52.512;13.448;2023-06-14T09:30:36;24.60;47.90
63219;DHT22;49320;52.512;13.448;2023-06-14T09:33:04;24.70;47.80
63219;DHT22;49320;52.512;13.448;2023-06-14T09:35:32;24.70;47.50
63219;DHT22;49320;52.512;13.448;2023-06-14T09:37:59;24.70;47.40
63219;DHT22;49320;52.512;13.448;2023-06-14T09:40:26;24.70;47.10
63219;DHT22;49320;52.512;13.448;2023-06-14T09:42:54;24.70;47.20
63219;DHT22;49320;52.512;13.448;2023-06-14T09:45:25;24.70;47.20
63219;DHT22;49320;52.512;13.448;2023-06-14T09:47:56;24.60;47.20
63219;DHT22;49320;52.512;13.448;2023-06-14T09:50:33;24.70;47.20
63219;DHT22;49320;52.512;13.448;2023-06-14T09:53:07;24.70;47.10
63219;DHT22;49320;52.512;13.448;2023-06-14T09:55:37;24.70;46.90
63219;DHT22;49320;52.512;13.448;2023-06-14T09:58:09;24.80;46.50
63219;DHT22;49320;52.512;13.448;2023-06-14T10:00:39;24.80;47.10
63219;DHT22;49320;52.512;13.448;2023-06-14T10:03:13;24.80;46.80
63219;DHT22;49320;52.512;13.448;2023-06-14T10:05:45;24.80;46.50
63219;DHT22;49320;52.512;13.448;2023-06-14T10:08:16;24.80;46.50
63219;DHT22;49320;52.512;13.448;2023-06-14T10:10:45;24.90;46.50
63219;DHT22;49320;52.512;13.448;2023-06-14T10:13:13;24.90;46.70
63219;DHT22;49320;52.512;13.448;2023-06-14T10:24:20;25.00;45.90
63219;DHT22;49320;52.512;13.448;2023-06-14T10:26:57;24.90;46.00
63219;DHT22;49320;52.512;13.448;2023-06-14T10:29:27;24.90;46.00
63219;DHT22;49320;52.512;13.448;2023-06-14T10:32:00;25.00;45.10
63219;DHT22;49320;52.512;13.448;2023-06-14T10:34:29;25.00;45.50
63219;DHT22;49320;52.512;13.448;2023-06-14T10:39:44;24.90;45.70
63219;DHT22;49320;52.512;13.448;2023-06-14T10:42:15;24.90;45.10
63219;DHT22;49320;52.512;13.448;2023-06-14T10:44:49;24.90;45.70
63219;DHT22;49320;52.512;13.448;2023-06-14T10:47:34;24.90;45.70
63219;DHT22;49320;52.512;13.448;2023-06-14T10:50:03;24.90;45.60
63219;DHT22;49320;52.512;13.448;2023-06-14T10:52:38;24.80;45.70
63219;DHT22;49320;52.512;13.448;2023-06-14T10:57:52;24.90;45.70
63219;DHT22;49320;52.512;13.448;2023-06-14T11:00:26;24.90;45.50
63219;DHT22;49320;52.512;13.448;2023-06-14T11:05:51;25.10;45.50
63219;DHT22;49320;52.512;13.448;2023-06-14T11:11:33;25.30;44.90
63219;DHT22;49320;52.512;13.448;2023-06-14T11:14:02;25.40;45.10
63219;DHT22;49320;52.512;13.448;2023-06-14T11:16:29;25.40;45.20
63219;DHT22;49320;52.512;13.448;2023-06-14T11:19:00;25.50;45.20
63219;DHT22;49320;52.512;13.448;2023-06-14T11:21:34;25.60;45.00
63219;DHT22;49320;52.512;13.448;2023-06-14T11:24:00;25.70;44.80
63219;DHT22;49320;52.512;13.448;2023-06-14T11:26:31;25.80;44.70
63219;DHT22;49320;52.512;13.448;2023-06-14T11:29:01;25.80;44.70
63219;DHT22;49320;52.512;13.448;2023-06-14T11:31:28;26.00;44.60
63219;DHT22;49320;52.512;13.448;2023-06-14T11:33:58;26.00;44.30
63219;DHT22;49320;52.512;13.448;2023-06-14T11:36:27;26.10;44.40
63219;DHT22;49320;52.512;13.448;2023-06-14T11:39:00;26.10;44.00
63219;DHT22;49320;52.512;13.448;2023-06-14T11:41:41;26.20;44.10
63219;DHT22;49320;52.512;13.448;2023-06-14T11:44:09;26.20;43.80
63219;DHT22;49320;52.512;13.448;2023-06-14T11:46:36;26.20;44.00
63219;DHT22;49320;52.512;13.448;2023-06-14T11:49:04;26.30;43.90
63219;DHT22;49320;52.512;13.448;2023-06-14T11:51:33;26.30;43.10
63219;DHT22;49320;52.512;13.448;2023-06-14T11:54:06;26.40;42.50
63219;DHT22;49320;52.512;13.448;2023-06-14T11:56:34;26.40;43.30
63219;DHT22;49320;52.512;13.448;2023-06-14T11:59:03;26.40;43.20
63219;DHT22;49320;52.512;13.448;2023-06-14T12:01:32;26.40;43.00
63219;DHT22;49320;52.512;13.448;2023-06-14T12:04:03;26.40;43.50
63219;DHT22;49320;52.512;13.448;2023-06-14T12:06:31;26.30;42.40
63219;DHT22;49320;52.512;13.448;2023-06-14T12:09:07;26.40;42.90
63219;DHT22;49320;52.512;13.448;2023-06-14T12:11:40;26.30;42.70
63219;DHT22;49320;52.512;13.448;2023-06-14T12:14:08;26.20;42.60
63219;DHT22;49320;52.512;13.448;2023-06-14T12:16:38;26.10;42.70
63219;DHT22;49320;52.512;13.448;2023-06-14T12:19:13;26.10;42.80
63219;DHT22;49320;52.512;13.448;2023-06-14T12:21:42;26.10;42.80
63219;DHT22;49320;52.512;13.448;2023-06-14T12:24:11;26.10;42.60
63219;DHT22;49320;52.512;13.448;2023-06-14T12:26:40;26.10;42.60
63219;DHT22;49320;52.512;13.448;2023-06-14T12:29:08;26.10;42.00
63219;DHT22;49320;52.512;13.448;2023-06-14T12:31:34;26.10;42.50
63219;DHT22;49320;52.512;13.448;2023-06-14T12:34:01;26.10;42.40
63219;DHT22;49320;52.512;13.448;2023-06-14T12:36:28;26.00;41.90
63219;DHT22;49320;52.512;13.448;2023-06-14T12:38:55;26.00;42.10
63219;DHT22;49320;52.512;13.448;2023-06-14T12:41:22;26.10;41.60
63219;DHT22;49320;52.512;13.448;2023-06-14T12:43:49;26.10;41.30
63219;DHT22;49320;52.512;13.448;2023-06-14T12:46:16;26.00;41.80
63219;DHT22;49320;52.512;13.448;2023-06-14T12:48:43;26.10;41.30
63219;DHT22;49320;52.512;13.448;2023-06-14T12:53:37;26.20;40.30
63219;DHT22;49320;52.512;13.448;2023-06-14T12:56:04;26.30;40.80
63219;DHT22;49320;52.512;13.448;2023-06-14T12:58:31;26.40;40.80
63219;DHT22;49320;52.512;13.448;2023-06-14T13:00:58;26.40;40.70
63219;DHT22;49320;52.512;13.448;2023-06-14T13:03:25;26.50;39.60
63219;DHT22;49320;52.512;13.448;2023-06-14T13:05:52;26.60;39.80
63219;DHT22;49320;52.512;13.448;2023-06-14T13:08:19;26.60;39.60
63219;DHT22;49320;52.512;13.448;2023-06-14T13:10:49;26.80;39.40
63219;DHT22;49320;52.512;13.448;2023-06-14T13:13:17;26.90;39.20
63219;DHT22;49320;52.512;13.448;2023-06-14T13:15:43;26.90;39.30
63219;DHT22;49320;52.512;13.448;2023-06-14T13:18:12;27.00;39.20
63219;DHT22;49320;52.512;13.448;2023-06-14T13:23:07;27.10;38.20
63219;DHT22;49320;52.512;13.448;2023-06-14T13:25:36;27.10;38.60
63219;DHT22;49320;52.512;13.448;2023-06-14T13:28:04;27.20;38.50
63219;DHT22;49320;52.512;13.448;2023-06-14T13:30:32;27.20;38.30
63219;DHT22;49320;52.512;13.448;2023-06-14T13:33:00;27.20;38.40
63219;DHT22;49320;52.512;13.448;2023-06-14T13:35:27;27.40;38.10
63219;DHT22;49320;52.512;13.448;2023-06-14T13:37:54;27.40;38.00
63219;DHT22;49320;52.512;13.448;2023-06-14T13:40:21;27.50;37.00
63219;DHT22;49320;52.512;13.448;2023-06-14T13:42:48;27.50;37.80
63219;DHT22;49320;52.512;13.448;2023-06-14T13:45:16;27.60;37.50
63219;DHT22;49320;52.512;13.448;2023-06-14T13:47:43;27.70;37.60
63219;DHT22;49320;52.512;13.448;2023-06-14T13:50:10;27.70;37.50
63219;DHT22;49320;52.512;13.448;2023-06-14T13:52:36;27.90;35.50
63219;DHT22;49320;52.512;13.448;2023-06-14T13:55:03;27.80;37.00
63219;DHT22;49320;52.512;13.448;2023-06-14T13:59:59;27.90;35.70
63219;DHT22;49320;52.512;13.448;2023-06-14T14:02:28;28.00;36.50
63219;DHT22;49320;52.512;13.448;2023-06-14T14:04:56;27.90;36.50
63219;DHT22;49320;52.512;13.448;2023-06-14T14:07:23;28.10;36.10
63219;DHT22;49320;52.512;13.448;2023-06-14T14:12:18;28.20;36.10
63219;DHT22;49320;52.512;13.448;2023-06-14T14:14:44;28.20;36.50
63219;DHT22;49320;52.512;13.448;2023-06-14T14:17:12;28.20;36.50
63219;DHT22;49320;52.512;13.448;2023-06-14T14:19:39;28.40;36.30
63219;DHT22;49320;52.512;13.448;2023-06-14T14:22:06;28.40;36.40
63219;DHT22;49320;52.512;13.448;2023-06-14T14:24:34;28.40;36.30
63219;DHT22;49320;52.512;13.448;2023-06-14T14:27:02;28.40;36.00
63219;DHT22;49320;52.512;13.448;2023-06-14T14:29:28;28.40;35.90
63219;DHT22;49320;52.512;13.448;2023-06-14T14:31:56;28.40;35.70
63219;DHT22;49320;52.512;13.448;2023-06-14T14:34:24;28.40;35.70
63219;DHT22;49320;52.512;13.448;2023-06-14T14:36:51;28.40;35.90
63219;DHT22;49320;52.512;13.448;2023-06-14T14:39:18;28.40;36.00
63219;DHT22;49320;52.512;13.448;2023-06-14T14:41:45;28.40;35.70
63219;DHT22;49320;52.512;13.448;2023-06-14T14:44:12;28.40;35.60
63219;DHT22;49320;52.512;13.448;2023-06-14T14:46:39;28.50;35.50
63219;DHT22;49320;52.512;13.448;2023-06-14T14:49:05;28.40;35.20
63219;DHT22;49320;52.512;13.448;2023-06-14T14:51:32;28.30;35.00
63219;DHT22;49320;52.512;13.448;2023-06-14T14:53:59;28.30;34.20
63219;DHT22;49320;52.512;13.448;2023-06-14T14:56:26;28.30;35.30
63219;DHT22;49320;52.512;13.448;2023-06-14T14:58:53;28.20;35.00
63219;DHT22;49320;52.512;13.448;2023-06-14T15:01:20;28.10;35.40
63219;DHT22;49320;52.512;13.448;2023-06-14T15:03:47;28.00;35.40
63219;DHT22;49320;52.512;13.448;2023-06-14T15:06:25;27.90;35.50
63219;DHT22;49320;52.512;13.448;2023-06-14T15:08:52;27.70;35.30
63219;DHT22;49320;52.512;13.448;2023-06-14T15:11:19;27.50;35.50
63219;DHT22;49320;52.512;13.448;2023-06-14T15:13:47;27.30;35.40
63219;DHT22;49320;52.512;13.448;2023-06-14T15:16:14;27.30;35.70
63219;DHT22;49320;52.512;13.448;2023-06-14T15:18:41;27.10;35.80
63219;DHT22;49320;52.512;13.448;2023-06-14T15:21:08;27.00;35.90
63219;DHT22;49320;52.512;13.448;2023-06-14T15:26:01;26.70;35.50
63219;DHT22;49320;52.512;13.448;2023-06-14T15:28:28;26.60;36.20
63219;DHT22;49320;52.512;13.448;2023-06-14T15:30:56;26.60;36.40
63219;DHT22;49320;52.512;13.448;2023-06-14T15:33:23;26.50;36.50
63219;DHT22;49320;52.512;13.448;2023-06-14T15:35:50;26.50;36.60
63219;DHT22;49320;52.512;13.448;2023-06-14T15:38:17;26.50;36.80
63219;DHT22;49320;52.512;13.448;2023-06-14T15:40:44;26.40;36.80
63219;DHT22;49320;52.512;13.448;2023-06-14T15:45:39;26.50;36.50
63219;DHT22;49320;52.512;13.448;2023-06-14T15:48:06;26.50;36.90
63219;DHT22;49320;52.512;13.448;2023-06-14T15:50:34;26.50;37.60
63219;DHT22;49320;52.512;13.448;2023-06-14T15:53:02;26.50;36.20
63219;DHT22;49320;52.512;13.448;2023-06-14T15:57:56;26.60;36.20
63219;DHT22;49320;52.512;13.448;2023-06-14T16:00:23;26.60;36.70
63219;DHT22;49320;52.512;13.448;2023-06-14T16:02:52;26.50;36.70
63219;DHT22;49320;52.512;13.448;2023-06-14T16:05:19;26.50;36.10